sensor_id;sensor_type;location;lat;lon;timestamp;P1;durP1;ratioP1;P2;durP2;ratioP2
36651;SDS011;53334;51.976;20.144;2023-07-31T00:00:57;2.38;;;2.17;;
36651;SDS011;53334;51.976;20.144;2023-07-31T00:03:31;2.88;;;2.08;;
36651;SDS011;53334;51.976;20.144;2023-07-31T00:06:04;2.22;;;2.03;;
36651;SDS011;53334;51.976;20.144;2023-07-31T00:08:37;2.47;;;2.28;;
36651;SDS011;53334;51.976;20.144;2023-07-31T00:11:11;2.80;;;2.20;;
36651;SDS011;53334;51.976;20.144;2023-07-31T00:13:44;2.60;;;1.98;;
36651;SDS011;53334;51.976;20.144;2023-07-31T00:16:19;2.08;;;1.90;;
36651;SDS011;53334;51.976;20.144;2023-07-31T00:18:52;2.55;;;2.00;;
36651;SDS011;53334;51.976;20.144;2023-07-31T00:21:25;2.45;;;2.25;;
36651;SDS011;53334;51.976;20.144;2023-07-31T00:23:59;3.97;;;2.38;;
36651;SDS011;53334;51.976;20.144;2023-07-31T00:26:32;3.38;;;2.08;;
36651;SDS011;53334;51.976;20.144;2023-07-31T00:29:05;2.25;;;2.05;;
36651;SDS011;53334;51.976;20.144;2023-07-31T00:31:40;2.47;;;2.15;;
36651;SDS011;53334;51.976;20.144;2023-07-31T00:34:13;2.00;;;1.80;;
36651;SDS011;53334;51.976;20.144;2023-07-31T00:36:47;2.42;;;2.22;;
36651;SDS011;53334;51.976;20.144;2023-07-31T00:39:20;3.08;;;2.15;;
36651;SDS011;53334;51.976;20.144;2023-07-31T00:41:54;2.50;;;2.30;;
36651;SDS011;53334;51.976;20.144;2023-07-31T00:44:27;2.33;;;2.13;;
36651;SDS011;53334;51.976;20.144;2023-07-31T00:47:02;2.22;;;2.03;;
36651;SDS011;53334;51.976;20.144;2023-07-31T00:49:35;3.30;;;1.95;;
36651;SDS011;53334;51.976;20.144;2023-07-31T00:52:09;3.70;;;2.22;;
36651;SDS011;53334;51.976;20.144;2023-07-31T00:54:42;2.15;;;1.95;;
36651;SDS011;53334;51.976;20.144;2023-07-31T00:57:16;2.10;;;1.90;;
36651;SDS011;53334;51.976;20.144;2023-07-31T00:59:49;2.17;;;1.98;;
36651;SDS011;53334;51.976;20.144;2023-07-31T01:02:24;1.80;;;1.70;;
36651;SDS011;53334;51.976;20.144;2023-07-31T01:04:57;2.42;;;2.20;;
36651;SDS011;53334;51.976;20.144;2023-07-31T01:07:32;2.25;;;2.05;;
36651;SDS011;53334;51.976;20.144;2023-07-31T01:10:15;2.60;;;2.40;;
36651;SDS011;53334;51.976;20.144;2023-07-31T01:12:53;2.25;;;2.05;;
36651;SDS011;53334;51.976;20.144;2023-07-31T01:15:29;2.45;;;1.83;;
36651;SDS011;53334;51.976;20.144;2023-07-31T01:18:03;1.85;;;1.70;;
36651;SDS011;53334;51.976;20.144;2023-07-31T01:20:37;2.40;;;2.20;;
36651;SDS011;53334;51.976;20.144;2023-07-31T01:26:24;2.33;;;2.10;;
36651;SDS011;53334;51.976;20.144;2023-07-31T01:29:01;2.10;;;1.90;;
36651;SDS011;53334;51.976;20.144;2023-07-31T01:31:39;1.83;;;1.73;;
36651;SDS011;53334;51.976;20.144;2023-07-31T01:34:19;2.13;;;1.92;;
36651;SDS011;53334;51.976;20.144;2023-07-31T01:36:53;1.70;;;1.60;;
36651;SDS011;53334;51.976;20.144;2023-07-31T01:39:28;2.17;;;1.98;;
36651;SDS011;53334;51.976;20.144;2023-07-31T01:42:02;1.70;;;1.60;;
36651;SDS011;53334;51.976;20.144;2023-07-31T01:44:36;1.92;;;1.73;;
36651;SDS011;53334;51.976;20.144;2023-07-31T01:47:09;6.10;;;2.10;;
36651;SDS011;53334;51.976;20.144;2023-07-31T01:49:43;1.75;;;1.65;;
36651;SDS011;53334;51.976;20.144;2023-07-31T01:52:16;3.92;;;1.85;;
36651;SDS011;53334;51.976;20.144;2023-07-31T01:54:49;2.92;;;2.10;;
36651;SDS011;53334;51.976;20.144;2023-07-31T01:57:24;1.85;;;1.70;;
36651;SDS011;53334;51.976;20.144;2023-07-31T01:59:57;2.40;;;2.05;;
36651;SDS011;53334;51.976;20.144;2023-07-31T02:02:31;1.55;;;1.45;;
36651;SDS011;53334;51.976;20.144;2023-07-31T02:05:05;2.53;;;1.70;;
36651;SDS011;53334;51.976;20.144;2023-07-31T02:07:38;2.00;;;1.80;;
36651;SDS011;53334;51.976;20.144;2023-07-31T02:10:12;1.73;;;1.63;;
36651;SDS011;53334;51.976;20.144;2023-07-31T02:12:47;2.63;;;2.08;;
36651;SDS011;53334;51.976;20.144;2023-07-31T02:15:20;2.10;;;1.90;;
36651;SDS011;53334;51.976;20.144;2023-07-31T02:17:53;1.60;;;1.45;;
36651;SDS011;53334;51.976;20.144;2023-07-31T02:20:26;1.83;;;1.73;;
36651;SDS011;53334;51.976;20.144;2023-07-31T02:23:00;1.77;;;1.60;;
36651;SDS011;53334;51.976;20.144;2023-07-31T02:25:33;2.80;;;2.17;;
36651;SDS011;53334;51.976;20.144;2023-07-31T02:28:08;1.92;;;1.70;;
36651;SDS011;53334;51.976;20.144;2023-07-31T02:30:43;1.63;;;1.52;;
36651;SDS011;53334;51.976;20.144;2023-07-31T02:33:17;2.03;;;1.55;;
36651;SDS011;53334;51.976;20.144;2023-07-31T02:35:51;1.83;;;1.67;;
36651;SDS011;53334;51.976;20.144;2023-07-31T02:38:26;2.47;;;2.28;;
36651;SDS011;53334;51.976;20.144;2023-07-31T02:40:59;2.38;;;2.17;;
36651;SDS011;53334;51.976;20.144;2023-07-31T02:43:34;1.65;;;1.55;;
36651;SDS011;53334;51.976;20.144;2023-07-31T02:46:07;2.40;;;1.70;;
36651;SDS011;53334;51.976;20.144;2023-07-31T02:48:40;2.40;;;1.85;;
36651;SDS011;53334;51.976;20.144;2023-07-31T02:51:14;1.52;;;1.42;;
36651;SDS011;53334;51.976;20.144;2023-07-31T02:53:47;1.58;;;1.48;;
36651;SDS011;53334;51.976;20.144;2023-07-31T02:58:55;2.72;;;1.95;;
36651;SDS011;53334;51.976;20.144;2023-07-31T03:01:29;2.30;;;1.85;;
36651;SDS011;53334;51.976;20.144;2023-07-31T03:04:02;2.85;;;1.88;;
36651;SDS011;53334;51.976;20.144;2023-07-31T03:06:36;2.28;;;2.08;;
36651;SDS011;53334;51.976;20.144;2023-07-31T03:09:10;1.98;;;1.88;;
36651;SDS011;53334;51.976;20.144;2023-07-31T03:11:43;1.90;;;1.80;;
36651;SDS011;53334;51.976;20.144;2023-07-31T03:14:18;2.17;;;1.45;;
36651;SDS011;53334;51.976;20.144;2023-07-31T03:16:51;1.70;;;1.60;;
36651;SDS011;53334;51.976;20.144;2023-07-31T03:19:24;1.92;;;1.75;;
36651;SDS011;53334;51.976;20.144;2023-07-31T03:21:58;1.80;;;1.70;;
36651;SDS011;53334;51.976;20.144;2023-07-31T03:24:33;2.47;;;2.28;;
36651;SDS011;53334;51.976;20.144;2023-07-31T03:27:06;1.70;;;1.58;;
36651;SDS011;53334;51.976;20.144;2023-07-31T03:29:41;2.10;;;1.98;;
36651;SDS011;53334;51.976;20.144;2023-07-31T03:32:15;2.33;;;2.00;;
36651;SDS011;53334;51.976;20.144;2023-07-31T03:34:49;1.90;;;1.80;;
36651;SDS011;53334;51.976;20.144;2023-07-31T03:37:22;2.00;;;1.88;;
36651;SDS011;53334;51.976;20.144;2023-07-31T03:39:55;1.70;;;1.60;;
36651;SDS011;53334;51.976;20.144;2023-07-31T03:42:28;1.67;;;1.52;;
36651;SDS011;53334;51.976;20.144;2023-07-31T03:45:04;1.80;;;1.70;;
36651;SDS011;53334;51.976;20.144;2023-07-31T03:47:38;2.15;;;1.95;;
36651;SDS011;53334;51.976;20.144;2023-07-31T03:50:12;1.60;;;1.50;;
36651;SDS011;53334;51.976;20.144;2023-07-31T03:52:45;2.22;;;2.03;;
36651;SDS011;53334;51.976;20.144;2023-07-31T03:55:18;2.42;;;1.77;;
36651;SDS011;53334;51.976;20.144;2023-07-31T03:57:53;1.73;;;1.48;;
36651;SDS011;53334;51.976;20.144;2023-07-31T04:00:27;1.95;;;1.83;;
36651;SDS011;53334;51.976;20.144;2023-07-31T04:03:01;1.80;;;1.70;;
36651;SDS011;53334;51.976;20.144;2023-07-31T04:05:37;2.15;;;1.60;;
36651;SDS011;53334;51.976;20.144;2023-07-31T04:08:11;3.60;;;1.75;;
36651;SDS011;53334;51.976;20.144;2023-07-31T04:10:44;1.75;;;1.65;;
36651;SDS011;53334;51.976;20.144;2023-07-31T04:13:18;2.22;;;2.03;;
36651;SDS011;53334;51.976;20.144;2023-07-31T04:15:53;1.73;;;1.60;;
36651;SDS011;53334;51.976;20.144;2023-07-31T04:18:26;2.67;;;1.80;;
36651;SDS011;53334;51.976;20.144;2023-07-31T04:21:02;2.33;;;2.13;;
36651;SDS011;53334;51.976;20.144;2023-07-31T04:23:35;1.40;;;1.30;;
36651;SDS011;53334;51.976;20.144;2023-07-31T04:26:09;2.10;;;1.90;;
36651;SDS011;53334;51.976;20.144;2023-07-31T04:28:42;2.13;;;1.80;;
36651;SDS011;53334;51.976;20.144;2023-07-31T04:31:17;1.90;;;1.80;;
36651;SDS011;53334;51.976;20.144;2023-07-31T04:33:50;2.10;;;1.52;;
36651;SDS011;53334;51.976;20.144;2023-07-31T04:36:23;2.35;;;1.65;;
36651;SDS011;53334;51.976;20.144;2023-07-31T04:38:56;2.00;;;1.80;;
36651;SDS011;53334;51.976;20.144;2023-07-31T04:41:30;1.88;;;1.70;;
36651;SDS011;53334;51.976;20.144;2023-07-31T04:44:03;2.70;;;1.92;;
36651;SDS011;53334;51.976;20.144;2023-07-31T04:46:38;1.70;;;1.58;;
36651;SDS011;53334;51.976;20.144;2023-07-31T04:49:12;1.88;;;1.70;;
36651;SDS011;53334;51.976;20.144;2023-07-31T04:51:45;2.03;;;1.83;;
36651;SDS011;53334;51.976;20.144;2023-07-31T04:54:19;1.77;;;1.67;;
36651;SDS011;53334;51.976;20.144;2023-07-31T04:56:52;2.30;;;1.80;;
36651;SDS011;53334;51.976;20.144;2023-07-31T04:59:25;1.60;;;1.50;;
36651;SDS011;53334;51.976;20.144;2023-07-31T05:02:00;2.20;;;2.00;;
36651;SDS011;53334;51.976;20.144;2023-07-31T05:04:33;1.75;;;1.65;;
36651;SDS011;53334;51.976;20.144;2023-07-31T05:07:07;1.75;;;1.65;;
36651;SDS011;53334;51.976;20.144;2023-07-31T05:09:40;4.53;;;1.63;;
36651;SDS011;53334;51.976;20.144;2023-07-31T05:12:13;1.70;;;1.60;;
36651;SDS011;53334;51.976;20.144;2023-07-31T05:14:46;1.90;;;1.65;;
36651;SDS011;53334;51.976;20.144;2023-07-31T05:17:21;1.95;;;1.63;;
36651;SDS011;53334;51.976;20.144;2023-07-31T05:19:54;1.35;;;1.20;;
36651;SDS011;53334;51.976;20.144;2023-07-31T05:22:28;1.83;;;1.70;;
36651;SDS011;53334;51.976;20.144;2023-07-31T05:25:01;3.20;;;1.55;;
36651;SDS011;53334;51.976;20.144;2023-07-31T05:27:34;1.60;;;1.50;;
36651;SDS011;53334;51.976;20.144;2023-07-31T05:30:08;1.60;;;1.50;;
36651;SDS011;53334;51.976;20.144;2023-07-31T05:35:16;2.40;;;1.73;;
36651;SDS011;53334;51.976;20.144;2023-07-31T05:37:49;1.50;;;1.40;;
36651;SDS011;53334;51.976;20.144;2023-07-31T05:40:23;2.83;;;1.95;;
36651;SDS011;53334;51.976;20.144;2023-07-31T05:43:00;1.90;;;1.80;;
36651;SDS011;53334;51.976;20.144;2023-07-31T05:45:34;2.13;;;1.60;;
36651;SDS011;53334;51.976;20.144;2023-07-31T05:48:09;2.00;;;1.30;;
36651;SDS011;53334;51.976;20.144;2023-07-31T05:50:43;1.50;;;1.40;;
36651;SDS011;53334;51.976;20.144;2023-07-31T05:53:16;1.73;;;1.63;;
36651;SDS011;53334;51.976;20.144;2023-07-31T05:55:50;1.50;;;1.40;;
36651;SDS011;53334;51.976;20.144;2023-07-31T05:58:23;1.90;;;1.70;;
36651;SDS011;53334;51.976;20.144;2023-07-31T06:00:56;1.48;;;1.38;;
36651;SDS011;53334;51.976;20.144;2023-07-31T06:03:31;1.45;;;1.35;;
36651;SDS011;53334;51.976;20.144;2023-07-31T06:06:04;1.63;;;1.45;;
36651;SDS011;53334;51.976;20.144;2023-07-31T06:08:38;1.73;;;1.52;;
36651;SDS011;53334;51.976;20.144;2023-07-31T06:11:11;1.40;;;1.30;;
36651;SDS011;53334;51.976;20.144;2023-07-31T06:13:44;1.70;;;1.60;;
36651;SDS011;53334;51.976;20.144;2023-07-31T06:16:19;1.95;;;1.67;;
36651;SDS011;53334;51.976;20.144;2023-07-31T06:18:54;3.08;;;2.00;;
36651;SDS011;53334;51.976;20.144;2023-07-31T06:21:27;1.63;;;1.52;;
36651;SDS011;53334;51.976;20.144;2023-07-31T06:24:01;1.60;;;1.50;;
36651;SDS011;53334;51.976;20.144;2023-07-31T06:26:34;1.98;;;1.45;;
36651;SDS011;53334;51.976;20.144;2023-07-31T06:31:42;1.70;;;1.60;;
36651;SDS011;53334;51.976;20.144;2023-07-31T06:34:17;1.73;;;1.60;;
36651;SDS011;53334;51.976;20.144;2023-07-31T06:36:50;6.75;;;2.60;;
36651;SDS011;53334;51.976;20.144;2023-07-31T06:39:23;8.98;;;3.05;;
36651;SDS011;53334;51.976;20.144;2023-07-31T06:41:57;7.93;;;2.60;;
36651;SDS011;53334;51.976;20.144;2023-07-31T06:44:30;5.45;;;3.17;;
36651;SDS011;53334;51.976;20.144;2023-07-31T06:47:03;4.15;;;2.90;;
36651;SDS011;53334;51.976;20.144;2023-07-31T06:49:40;4.95;;;3.05;;
36651;SDS011;53334;51.976;20.144;2023-07-31T06:53:02;2.90;;;2.70;;
36651;SDS011;53334;51.976;20.144;2023-07-31T06:55:35;5.40;;;3.33;;
36651;SDS011;53334;51.976;20.144;2023-07-31T06:58:08;4.13;;;2.80;;
36651;SDS011;53334;51.976;20.144;2023-07-31T07:00:42;3.97;;;3.05;;
36651;SDS011;53334;51.976;20.144;2023-07-31T07:03:15;13.45;;;3.65;;
36651;SDS011;53334;51.976;20.144;2023-07-31T07:05:53;6.97;;;2.90;;
36651;SDS011;53334;51.976;20.144;2023-07-31T07:08:26;6.70;;;2.88;;
36651;SDS011;53334;51.976;20.144;2023-07-31T07:10:59;4.10;;;2.80;;
36651;SDS011;53334;51.976;20.144;2023-07-31T07:13:32;2.95;;;2.67;;
36651;SDS011;53334;51.976;20.144;2023-07-31T07:16:09;5.25;;;2.35;;
36651;SDS011;53334;51.976;20.144;2023-07-31T07:18:43;3.47;;;2.40;;
36651;SDS011;53334;51.976;20.144;2023-07-31T07:21:34;3.85;;;2.20;;
36651;SDS011;53334;51.976;20.144;2023-07-31T07:24:07;11.02;;;2.97;;
36651;SDS011;53334;51.976;20.144;2023-07-31T07:26:41;5.10;;;2.90;;
36651;SDS011;53334;51.976;20.144;2023-07-31T07:29:14;5.40;;;2.80;;
36651;SDS011;53334;51.976;20.144;2023-07-31T07:31:49;4.13;;;2.72;;
36651;SDS011;53334;51.976;20.144;2023-07-31T07:34:24;5.32;;;2.78;;
36651;SDS011;53334;51.976;20.144;2023-07-31T07:37:00;3.30;;;2.55;;
36651;SDS011;53334;51.976;20.144;2023-07-31T07:39:33;4.05;;;2.67;;
36651;SDS011;53334;51.976;20.144;2023-07-31T07:42:06;4.32;;;2.80;;
36651;SDS011;53334;51.976;20.144;2023-07-31T07:44:39;3.88;;;2.92;;
36651;SDS011;53334;51.976;20.144;2023-07-31T07:47:13;3.58;;;2.55;;
36651;SDS011;53334;51.976;20.144;2023-07-31T07:49:46;6.97;;;2.60;;
36651;SDS011;53334;51.976;20.144;2023-07-31T07:52:25;3.90;;;2.58;;
36651;SDS011;53334;51.976;20.144;2023-07-31T07:54:58;5.10;;;2.65;;
36651;SDS011;53334;51.976;20.144;2023-07-31T07:57:32;3.47;;;2.80;;
36651;SDS011;53334;51.976;20.144;2023-07-31T08:00:06;5.20;;;2.60;;
36651;SDS011;53334;51.976;20.144;2023-07-31T08:02:44;4.63;;;3.05;;
36651;SDS011;53334;51.976;20.144;2023-07-31T08:05:18;7.57;;;2.75;;
36651;SDS011;53334;51.976;20.144;2023-07-31T08:07:53;5.40;;;2.85;;
36651;SDS011;53334;51.976;20.144;2023-07-31T08:10:26;4.65;;;3.28;;
36651;SDS011;53334;51.976;20.144;2023-07-31T08:12:59;4.65;;;2.63;;
36651;SDS011;53334;51.976;20.144;2023-07-31T08:15:33;4.30;;;2.40;;
36651;SDS011;53334;51.976;20.144;2023-07-31T08:18:06;5.95;;;3.15;;
36651;SDS011;53334;51.976;20.144;2023-07-31T08:20:42;3.28;;;2.70;;
36651;SDS011;53334;51.976;20.144;2023-07-31T08:23:17;4.60;;;2.90;;
36651;SDS011;53334;51.976;20.144;2023-07-31T08:25:50;9.38;;;3.25;;
36651;SDS011;53334;51.976;20.144;2023-07-31T08:28:23;5.25;;;2.80;;
36651;SDS011;53334;51.976;20.144;2023-07-31T08:33:30;4.85;;;2.47;;
36651;SDS011;53334;51.976;20.144;2023-07-31T08:36:04;4.60;;;2.83;;
36651;SDS011;53334;51.976;20.144;2023-07-31T08:38:39;3.75;;;2.38;;
36651;SDS011;53334;51.976;20.144;2023-07-31T08:41:12;6.28;;;3.20;;
36651;SDS011;53334;51.976;20.144;2023-07-31T08:43:46;2.35;;;2.13;;
36651;SDS011;53334;51.976;20.144;2023-07-31T08:46:19;2.70;;;2.17;;
36651;SDS011;53334;51.976;20.144;2023-07-31T08:48:53;3.25;;;2.60;;
36651;SDS011;53334;51.976;20.144;2023-07-31T08:51:30;3.13;;;2.60;;
36651;SDS011;53334;51.976;20.144;2023-07-31T08:54:04;3.83;;;2.42;;
36651;SDS011;53334;51.976;20.144;2023-07-31T08:56:38;4.13;;;2.80;;
36651;SDS011;53334;51.976;20.144;2023-07-31T08:59:13;2.85;;;2.50;;
36651;SDS011;53334;51.976;20.144;2023-07-31T09:01:49;3.83;;;2.47;;
36651;SDS011;53334;51.976;20.144;2023-07-31T09:04:25;2.90;;;2.38;;
36651;SDS011;53334;51.976;20.144;2023-07-31T09:07:00;4.50;;;2.70;;
36651;SDS011;53334;51.976;20.144;2023-07-31T09:09:37;3.00;;;2.13;;
36651;SDS011;53334;51.976;20.144;2023-07-31T09:12:10;4.25;;;2.60;;
36651;SDS011;53334;51.976;20.144;2023-07-31T09:14:44;3.85;;;2.53;;
36651;SDS011;53334;51.976;20.144;2023-07-31T09:17:28;5.63;;;2.70;;
36651;SDS011;53334;51.976;20.144;2023-07-31T09:20:12;3.88;;;2.05;;
36651;SDS011;53334;51.976;20.144;2023-07-31T09:22:46;3.08;;;1.92;;
36651;SDS011;53334;51.976;20.144;2023-07-31T09:25:22;4.20;;;2.22;;
36651;SDS011;53334;51.976;20.144;2023-07-31T09:27:59;2.78;;;2.08;;
36651;SDS011;53334;51.976;20.144;2023-07-31T09:30:43;2.92;;;2.20;;
36651;SDS011;53334;51.976;20.144;2023-07-31T09:33:19;3.22;;;2.30;;
36651;SDS011;53334;51.976;20.144;2023-07-31T09:35:52;5.70;;;2.70;;
36651;SDS011;53334;51.976;20.144;2023-07-31T09:38:25;5.80;;;2.55;;
36651;SDS011;53334;51.976;20.144;2023-07-31T09:41:00;2.97;;;2.42;;
36651;SDS011;53334;51.976;20.144;2023-07-31T09:43:33;3.15;;;2.20;;
36651;SDS011;53334;51.976;20.144;2023-07-31T09:46:12;3.08;;;2.22;;
36651;SDS011;53334;51.976;20.144;2023-07-31T09:48:46;3.58;;;2.53;;
36651;SDS011;53334;51.976;20.144;2023-07-31T09:51:25;4.93;;;2.35;;
36651;SDS011;53334;51.976;20.144;2023-07-31T09:53:59;3.20;;;2.03;;
36651;SDS011;53334;51.976;20.144;2023-07-31T09:56:35;3.30;;;2.50;;
36651;SDS011;53334;51.976;20.144;2023-07-31T09:59:10;4.25;;;2.72;;
36651;SDS011;53334;51.976;20.144;2023-07-31T10:01:45;3.67;;;2.05;;
36651;SDS011;53334;51.976;20.144;2023-07-31T10:04:19;2.83;;;2.40;;
36651;SDS011;53334;51.976;20.144;2023-07-31T10:06:59;5.80;;;2.05;;
36651;SDS011;53334;51.976;20.144;2023-07-31T10:09:35;2.90;;;2.33;;
36651;SDS011;53334;51.976;20.144;2023-07-31T10:12:10;3.40;;;2.30;;
36651;SDS011;53334;51.976;20.144;2023-07-31T10:14:46;4.95;;;2.17;;
36651;SDS011;53334;51.976;20.144;2023-07-31T10:17:20;4.00;;;2.40;;
36651;SDS011;53334;51.976;20.144;2023-07-31T10:19:54;3.92;;;2.10;;
36651;SDS011;53334;51.976;20.144;2023-07-31T10:22:30;4.35;;;2.00;;
36651;SDS011;53334;51.976;20.144;2023-07-31T10:25:05;3.15;;;2.53;;
36651;SDS011;53334;51.976;20.144;2023-07-31T10:27:42;4.47;;;2.33;;
36651;SDS011;53334;51.976;20.144;2023-07-31T10:30:17;3.15;;;2.40;;
36651;SDS011;53334;51.976;20.144;2023-07-31T10:32:52;4.50;;;2.40;;
36651;SDS011;53334;51.976;20.144;2023-07-31T10:35:27;3.17;;;2.47;;
36651;SDS011;53334;51.976;20.144;2023-07-31T10:38:09;5.65;;;2.47;;
36651;SDS011;53334;51.976;20.144;2023-07-31T10:40:43;6.55;;;2.55;;
36651;SDS011;53334;51.976;20.144;2023-07-31T10:43:25;6.25;;;2.60;;
36651;SDS011;53334;51.976;20.144;2023-07-31T10:45:59;6.00;;;2.60;;
36651;SDS011;53334;51.976;20.144;2023-07-31T10:48:33;4.05;;;3.05;;
36651;SDS011;53334;51.976;20.144;2023-07-31T10:51:08;3.47;;;2.28;;
36651;SDS011;53334;51.976;20.144;2023-07-31T10:53:43;2.60;;;2.10;;
36651;SDS011;53334;51.976;20.144;2023-07-31T10:56:17;3.97;;;2.70;;
36651;SDS011;53334;51.976;20.144;2023-07-31T10:59:01;2.80;;;2.55;;
36651;SDS011;53334;51.976;20.144;2023-07-31T11:01:50;3.30;;;2.30;;
36651;SDS011;53334;51.976;20.144;2023-07-31T11:04:24;2.13;;;1.90;;
36651;SDS011;53334;51.976;20.144;2023-07-31T11:06:59;4.22;;;2.33;;
36651;SDS011;53334;51.976;20.144;2023-07-31T11:09:34;3.78;;;2.55;;
36651;SDS011;53334;51.976;20.144;2023-07-31T11:12:08;5.57;;;2.80;;
36651;SDS011;53334;51.976;20.144;2023-07-31T11:17:16;4.38;;;2.67;;
36651;SDS011;53334;51.976;20.144;2023-07-31T11:19:51;4.65;;;2.15;;
36651;SDS011;53334;51.976;20.144;2023-07-31T11:22:24;4.63;;;2.05;;
36651;SDS011;53334;51.976;20.144;2023-07-31T11:24:57;6.95;;;2.85;;
36651;SDS011;53334;51.976;20.144;2023-07-31T11:27:31;2.63;;;1.73;;
36651;SDS011;53334;51.976;20.144;2023-07-31T11:30:12;2.50;;;2.30;;
36651;SDS011;53334;51.976;20.144;2023-07-31T11:32:45;5.63;;;2.15;;
36651;SDS011;53334;51.976;20.144;2023-07-31T11:35:19;4.97;;;2.50;;
36651;SDS011;53334;51.976;20.144;2023-07-31T11:37:52;3.55;;;2.17;;
36651;SDS011;53334;51.976;20.144;2023-07-31T11:40:25;2.88;;;2.17;;
36651;SDS011;53334;51.976;20.144;2023-07-31T11:43:04;1.80;;;1.70;;
36651;SDS011;53334;51.976;20.144;2023-07-31T11:45:38;3.28;;;2.25;;
36651;SDS011;53334;51.976;20.144;2023-07-31T11:48:17;4.22;;;1.75;;
36651;SDS011;53334;51.976;20.144;2023-07-31T11:50:52;3.10;;;2.72;;
36651;SDS011;53334;51.976;20.144;2023-07-31T11:53:27;4.75;;;2.75;;
36651;SDS011;53334;51.976;20.144;2023-07-31T11:56:04;5.03;;;2.38;;
36651;SDS011;53334;51.976;20.144;2023-07-31T11:58:39;4.60;;;2.42;;
36651;SDS011;53334;51.976;20.144;2023-07-31T12:01:17;5.70;;;2.60;;
36651;SDS011;53334;51.976;20.144;2023-07-31T12:03:52;4.35;;;2.55;;
36651;SDS011;53334;51.976;20.144;2023-07-31T12:06:32;2.28;;;1.83;;
36651;SDS011;53334;51.976;20.144;2023-07-31T12:09:06;3.88;;;2.72;;
36651;SDS011;53334;51.976;20.144;2023-07-31T12:11:42;4.20;;;1.90;;
36651;SDS011;53334;51.976;20.144;2023-07-31T12:14:20;7.32;;;2.17;;
36651;SDS011;53334;51.976;20.144;2023-07-31T12:16:56;4.45;;;2.50;;
36651;SDS011;53334;51.976;20.144;2023-07-31T12:19:31;3.50;;;2.30;;
36651;SDS011;53334;51.976;20.144;2023-07-31T12:22:10;2.38;;;1.85;;
36651;SDS011;53334;51.976;20.144;2023-07-31T12:24:44;2.10;;;1.77;;
36651;SDS011;53334;51.976;20.144;2023-07-31T12:27:18;3.88;;;2.00;;
36651;SDS011;53334;51.976;20.144;2023-07-31T12:29:53;5.90;;;2.78;;
36651;SDS011;53334;51.976;20.144;2023-07-31T12:32:29;3.95;;;2.30;;
36651;SDS011;53334;51.976;20.144;2023-07-31T12:35:06;5.32;;;2.00;;
36651;SDS011;53334;51.976;20.144;2023-07-31T12:37:40;3.05;;;2.30;;
36651;SDS011;53334;51.976;20.144;2023-07-31T12:40:13;3.10;;;1.98;;
36651;SDS011;53334;51.976;20.144;2023-07-31T12:42:54;3.13;;;2.30;;
36651;SDS011;53334;51.976;20.144;2023-07-31T12:45:27;3.45;;;2.20;;
36651;SDS011;53334;51.976;20.144;2023-07-31T12:48:02;7.18;;;2.03;;
36651;SDS011;53334;51.976;20.144;2023-07-31T12:50:36;6.68;;;2.63;;
36651;SDS011;53334;51.976;20.144;2023-07-31T12:53:10;4.53;;;2.33;;
36651;SDS011;53334;51.976;20.144;2023-07-31T12:55:43;2.90;;;2.03;;
36651;SDS011;53334;51.976;20.144;2023-07-31T12:58:16;3.95;;;2.40;;
36651;SDS011;53334;51.976;20.144;2023-07-31T13:00:50;5.03;;;2.70;;
36651;SDS011;53334;51.976;20.144;2023-07-31T13:03:24;5.43;;;2.78;;
36651;SDS011;53334;51.976;20.144;2023-07-31T13:05:58;6.32;;;2.05;;
36651;SDS011;53334;51.976;20.144;2023-07-31T13:08:31;4.07;;;2.17;;
36651;SDS011;53334;51.976;20.144;2023-07-31T13:11:04;4.07;;;3.22;;
36651;SDS011;53334;51.976;20.144;2023-07-31T13:13:38;3.30;;;1.88;;
36651;SDS011;53334;51.976;20.144;2023-07-31T13:16:11;4.95;;;2.85;;
36651;SDS011;53334;51.976;20.144;2023-07-31T13:18:46;4.45;;;2.30;;
36651;SDS011;53334;51.976;20.144;2023-07-31T13:21:19;4.97;;;2.72;;
36651;SDS011;53334;51.976;20.144;2023-07-31T13:23:53;5.47;;;2.33;;
36651;SDS011;53334;51.976;20.144;2023-07-31T13:26:29;3.78;;;2.20;;
36651;SDS011;53334;51.976;20.144;2023-07-31T13:29:02;2.58;;;2.08;;
36651;SDS011;53334;51.976;20.144;2023-07-31T13:31:36;6.20;;;2.50;;
36651;SDS011;53334;51.976;20.144;2023-07-31T13:34:10;4.07;;;2.28;;
36651;SDS011;53334;51.976;20.144;2023-07-31T13:36:44;4.78;;;2.25;;
36651;SDS011;53334;51.976;20.144;2023-07-31T13:39:17;1.85;;;1.65;;
36651;SDS011;53334;51.976;20.144;2023-07-31T13:41:51;4.03;;;2.38;;
36651;SDS011;53334;51.976;20.144;2023-07-31T13:44:24;3.63;;;2.03;;
36651;SDS011;53334;51.976;20.144;2023-07-31T13:46:57;3.83;;;2.28;;
36651;SDS011;53334;51.976;20.144;2023-07-31T13:49:32;2.47;;;1.95;;
36651;SDS011;53334;51.976;20.144;2023-07-31T13:52:06;3.17;;;2.08;;
36651;SDS011;53334;51.976;20.144;2023-07-31T13:54:39;2.08;;;1.88;;
36651;SDS011;53334;51.976;20.144;2023-07-31T13:57:14;4.55;;;2.65;;
36651;SDS011;53334;51.976;20.144;2023-07-31T13:59:47;2.80;;;1.92;;
36651;SDS011;53334;51.976;20.144;2023-07-31T14:02:21;5.75;;;2.47;;
36651;SDS011;53334;51.976;20.144;2023-07-31T14:04:55;10.68;;;1.80;;
36651;SDS011;53334;51.976;20.144;2023-07-31T14:07:28;3.63;;;2.13;;
36651;SDS011;53334;51.976;20.144;2023-07-31T14:10:02;3.72;;;2.30;;
36651;SDS011;53334;51.976;20.144;2023-07-31T14:12:36;2.42;;;1.95;;
36651;SDS011;53334;51.976;20.144;2023-07-31T14:15:14;3.95;;;2.25;;
36651;SDS011;53334;51.976;20.144;2023-07-31T14:17:47;2.10;;;1.88;;
36651;SDS011;53334;51.976;20.144;2023-07-31T14:20:34;2.13;;;1.73;;
36651;SDS011;53334;51.976;20.144;2023-07-31T14:23:08;3.97;;;2.45;;
36651;SDS011;53334;51.976;20.144;2023-07-31T14:25:41;2.88;;;2.15;;
36651;SDS011;53334;51.976;20.144;2023-07-31T14:28:14;2.88;;;1.83;;
36651;SDS011;53334;51.976;20.144;2023-07-31T14:30:47;3.92;;;2.03;;
36651;SDS011;53334;51.976;20.144;2023-07-31T14:33:21;2.88;;;2.30;;
36651;SDS011;53334;51.976;20.144;2023-07-31T14:35:55;2.92;;;2.10;;
36651;SDS011;53334;51.976;20.144;2023-07-31T14:38:29;3.80;;;2.30;;
36651;SDS011;53334;51.976;20.144;2023-07-31T14:41:02;3.20;;;2.00;;
36651;SDS011;53334;51.976;20.144;2023-07-31T14:43:35;3.20;;;1.98;;
36651;SDS011;53334;51.976;20.144;2023-07-31T14:46:08;2.90;;;2.00;;
36651;SDS011;53334;51.976;20.144;2023-07-31T14:48:42;2.97;;;2.55;;
36651;SDS011;53334;51.976;20.144;2023-07-31T14:51:16;2.80;;;2.03;;
36651;SDS011;53334;51.976;20.144;2023-07-31T14:53:50;2.92;;;2.10;;
36651;SDS011;53334;51.976;20.144;2023-07-31T14:56:23;3.25;;;2.10;;
36651;SDS011;53334;51.976;20.144;2023-07-31T14:58:58;3.22;;;2.10;;
36651;SDS011;53334;51.976;20.144;2023-07-31T15:01:31;4.13;;;2.03;;
36651;SDS011;53334;51.976;20.144;2023-07-31T15:04:04;2.60;;;1.60;;
36651;SDS011;53334;51.976;20.144;2023-07-31T15:06:39;3.22;;;1.80;;
36651;SDS011;53334;51.976;20.144;2023-07-31T15:09:13;2.17;;;1.50;;
36651;SDS011;53334;51.976;20.144;2023-07-31T15:11:46;3.78;;;1.85;;
36651;SDS011;53334;51.976;20.144;2023-07-31T15:14:19;3.35;;;1.83;;
36651;SDS011;53334;51.976;20.144;2023-07-31T15:16:53;2.05;;;1.80;;
36651;SDS011;53334;51.976;20.144;2023-07-31T15:19:26;3.05;;;1.90;;
36651;SDS011;53334;51.976;20.144;2023-07-31T15:22:02;3.20;;;2.33;;
36651;SDS011;53334;51.976;20.144;2023-07-31T15:24:36;3.20;;;1.73;;
36651;SDS011;53334;51.976;20.144;2023-07-31T15:27:09;4.03;;;2.10;;
36651;SDS011;53334;51.976;20.144;2023-07-31T15:29:43;3.25;;;2.20;;
36651;SDS011;53334;51.976;20.144;2023-07-31T15:32:16;2.08;;;1.90;;